Time;durP1;ratioP1;P1;durP2;ratioP2;P2;SDS_P1;SDS_P2;PMS_P1;PMS_P2;Temp;Humidity;BMP_temperature;BMP_pressure;BME280_temperature;BME280_humidity;BME280_pressure;Samples;Min_cycle;Max_cycle;Signal;HPM_P1;HPM_P2
2024/01/12 06:03:46;;;;;;;8.93;4.87;;;15.40;47.30;;;;;;4912586;29;20535;0
2024/01/12 06:06:12;;;;;;;6.83;4.90;;;15.50;47.20;;;;;;4913618;29;20638;0
2024/01/12 06:08:38;;;;;;;7.13;5.40;;;15.50;47.20;;;;;;4915581;29;20613;0
2024/01/12 06:11:04;;;;;;;7.27;5.33;;;15.60;47.20;;;;;;4929750;29;20471;0
2024/01/12 06:13:30;;;;;;;10.20;5.00;;;15.70;47.10;;;;;;4913389;29;20504;0
2024/01/12 06:15:56;;;;;;;6.30;4.90;;;15.90;46.90;;;;;;4913397;29;20178;0
2024/01/12 06:18:21;;;;;;;6.07;4.70;;;16.10;46.60;;;;;;4912801;29;20615;0
2024/01/12 06:20:48;;;;;;;5.57;4.97;;;16.40;46.30;;;;;;4927100;29;20493;-1
2024/01/12 06:23:14;;;;;;;6.90;4.60;;;16.60;46.10;;;;;;4914636;29;20190;0
2024/01/12 06:25:40;;;;;;;6.07;5.07;;;16.80;45.80;;;;;;4910642;29;20440;0
2024/01/12 06:28:06;;;;;;;7.43;4.93;;;17.00;45.60;;;;;;4916304;29;20207;0
2024/01/12 06:30:32;;;;;;;9.50;4.70;;;17.10;45.40;;;;;;4916419;29;20332;0
2024/01/12 06:32:58;;;;;;;5.83;4.70;;;17.10;45.30;;;;;;4920306;29;20285;-1
2024/01/12 06:35:24;;;;;;;8.30;4.77;;;17.00;45.40;;;;;;4919981;29;20194;0
2024/01/12 06:37:50;;;;;;;6.37;4.60;;;16.80;45.70;;;;;;4912207;29;20207;0
2024/01/12 06:40:16;;;;;;;5.33;4.80;;;16.80;45.70;;;;;;4919150;29;20196;0
2024/01/12 06:42:41;;;;;;;5.63;4.40;;;16.70;45.70;;;;;;4919425;29;20458;-3
2024/01/12 06:45:09;;;;;;;5.73;4.60;;;16.40;45.90;;;;;;4914229;29;20183;-2
2024/01/12 06:47:35;;;;;;;7.13;5.00;;;16.20;46.30;;;;;;4911404;29;20401;-2
2024/01/12 06:50:01;;;;;;;6.33;4.80;;;16.00;46.60;;;;;;4909756;29;20336;-2
2024/01/12 06:52:29;;;;;;;5.37;4.60;;;15.80;46.80;;;;;;4908010;29;20176;-2
2024/01/12 06:54:55;;;;;;;5.73;4.60;;;15.70;46.90;;;;;;4908142;29;20654;-2
2024/01/12 06:57:21;;;;;;;9.03;4.50;;;15.60;47.10;;;;;;4907535;29;20294;-2
2024/01/12 06:59:47;;;;;;;5.57;4.23;;;15.60;47.20;;;;;;4890102;29;20623;-2
2024/01/12 07:02:14;;;;;;;5.10;4.33;;;15.50;47.30;;;;;;4885919;29;20204;-2
2024/01/12 07:04:40;;;;;;;6.50;4.20;;;15.50;47.40;;;;;;4890098;29;20194;-2
2024/01/12 07:07:06;;;;;;;5.57;4.20;;;15.40;47.50;;;;;;4888216;29;20247;-2
2024/01/12 07:09:31;;;;;;;5.43;4.10;;;15.50;47.50;;;;;;4893738;29;20187;-2
2024/01/12 07:11:57;;;;;;;5.47;4.13;;;15.60;47.40;;;;;;4895205;29;20187;-2
2024/01/12 07:14:23;;;;;;;8.10;4.53;;;15.60;47.30;;;;;;4904044;29;20210;-2
2024/01/12 07:16:49;;;;;;;5.53;4.50;;;15.70;47.30;;;;;;4903890;29;20820;-2
2024/01/12 07:19:15;;;;;;;5.33;4.07;;;15.60;47.70;;;;;;4903233;29;20181;-2
2024/01/12 07:21:40;;;;;;;6.23;4.23;;;15.60;47.80;;;;;;4913704;29;20528;-2
2024/01/12 07:24:06;;;;;;;6.47;4.23;;;15.70;47.80;;;;;;4893206;29;20333;-2
2024/01/12 07:26:32;;;;;;;4.13;3.63;;;15.80;47.80;;;;;;4890348;29;20329;-2
2024/01/12 07:28:59;;;;;;;5.77;3.70;;;15.80;47.70;;;;;;4893560;29;20176;-2
2024/01/12 07:31:25;;;;;;;5.10;4.10;;;15.80;47.70;;;;;;4895083;29;20176;-2
2024/01/12 07:33:57;;;;;;;4.50;3.40;;;15.70;47.70;;;;;;4900313;29;20185;-2
2024/01/12 07:36:23;;;;;;;5.77;3.67;;;15.70;47.80;;;;;;4902371;29;20622;-2
2024/01/12 07:38:48;;;;;;;6.50;3.67;;;15.60;47.80;;;;;;4900477;29;20184;-2
2024/01/12 07:41:14;;;;;;;5.33;3.70;;;15.60;47.90;;;;;;4892842;29;20363;-3
2024/01/12 07:43:40;;;;;;;4.40;3.70;;;15.50;47.90;;;;;;4891869;29;20250;-2
2024/01/12 07:46:05;;;;;;;6.23;3.87;;;15.40;47.90;;;;;;4889633;29;20366;-2
2024/01/12 07:48:31;;;;;;;5.27;3.63;;;15.40;48.10;;;;;;4891588;29;20223;-2
2024/01/12 07:50:57;;;;;;;5.10;3.70;;;15.40;48.10;;;;;;4891855;29;20191;-2
2024/01/12 07:53:22;;;;;;;6.43;3.40;;;15.40;48.10;;;;;;4891393;29;20249;-2
2024/01/12 07:55:49;;;;;;;4.40;3.67;;;15.40;48.10;;;;;;4890866;29;20267;-2
2024/01/12 07:58:18;;;;;;;6.83;3.87;;;15.50;48.10;;;;;;4892717;29;20334;-2
2024/01/12 08:00:44;;;;;;;5.90;3.70;;;15.50;48.10;;;;;;4893489;29;20248;-2
2024/01/12 08:03:09;;;;;;;4.90;3.50;;;15.50;48.00;;;;;;4893617;29;20200;-2
2024/01/12 08:05:35;;;;;;;6.40;3.73;;;15.50;48.00;;;;;;4891885;29;20326;-2
2024/01/12 08:08:02;;;;;;;6.27;3.60;;;15.50;48.00;;;;;;4892666;29;20281;-2
2024/01/12 08:10:27;;;;;;;7.53;3.10;;;15.50;48.00;;;;;;4891390;29;20450;-2
2024/01/12 08:12:53;;;;;;;5.63;3.30;;;15.40;48.00;;;;;;4892761;29;20225;-2
2024/01/12 08:15:19;;;;;;;5.03;3.63;;;15.50;48.10;;;;;;4892500;29;20226;-2
2024/01/12 08:17:44;;;;;;;6.13;3.50;;;15.40;48.10;;;;;;4894870;29;20551;-2
2024/01/12 08:20:10;;;;;;;4.30;3.50;;;15.40;48.20;;;;;;4891665;29;20238;-2
2024/01/12 08:22:36;;;;;;;5.30;3.50;;;15.30;48.20;;;;;;4895969;29;20298;-2
2024/01/12 08:25:03;;;;;;;5.00;3.67;;;15.30;48.20;;;;;;4912036;29;20209;-2
2024/01/12 08:27:29;;;;;;;5.10;3.57;;;15.20;48.30;;;;;;4911415;29;20554;-2
2024/01/12 08:29:55;;;;;;;5.57;3.30;;;15.20;48.40;;;;;;4912823;29;20195;-2
2024/01/12 08:32:20;;;;;;;4.90;3.70;;;15.20;48.50;;;;;;4910153;29;20179;-2
2024/01/12 08:34:47;;;;;;;6.00;3.23;;;15.10;48.50;;;;;;4909475;29;20235;-2
2024/01/12 08:37:13;;;;;;;5.37;3.47;;;15.10;48.60;;;;;;4910757;29;20401;-2
2024/01/12 08:39:39;;;;;;;5.27;3.73;;;15.00;48.60;;;;;;4911324;29;20302;-2
2024/01/12 08:42:05;;;;;;;6.13;3.73;;;15.00;48.70;;;;;;4910010;29;20191;-2
2024/01/12 08:44:30;;;;;;;5.23;3.63;;;15.00;48.70;;;;;;4911231;29;20445;-2
2024/01/12 08:46:56;;;;;;;4.60;3.63;;;15.00;48.70;;;;;;4909713;29;20179;-3
2024/01/12 08:49:22;;;;;;;4.00;3.40;;;15.10;48.70;;;;;;4910596;29;20189;-2
2024/01/12 08:51:48;;;;;;;4.13;3.10;;;15.20;48.60;;;;;;4899449;29;20423;-2
2024/01/12 08:54:14;;;;;;;4.40;2.87;;;15.20;48.60;;;;;;4910748;29;20180;-2
2024/01/12 08:56:40;;;;;;;4.30;3.13;;;15.30;48.40;;;;;;4908711;29;20235;-2
2024/01/12 08:59:08;;;;;;;4.00;3.13;;;15.40;48.30;;;;;;4910508;29;20184;-2
2024/01/12 09:01:33;;;;;;;4.40;3.50;;;15.50;48.20;;;;;;4909899;29;20558;-2
2024/01/12 09:04:01;;;;;;;4.53;3.20;;;15.60;48.10;;;;;;4911789;29;20234;-2
2024/01/12 09:06:27;;;;;;;4.17;3.47;;;15.60;48.00;;;;;;4908309;29;20252;-2
2024/01/12 09:08:55;;;;;;;4.73;3.33;;;15.60;47.90;;;;;;4919397;29;20180;-3
2024/01/12 09:11:21;;;;;;;5.27;3.23;;;15.70;47.80;;;;;;4920315;29;20167;-2
2024/01/12 09:13:47;;;;;;;3.53;2.73;;;15.80;47.70;;;;;;4919853;29;20161;-2
2024/01/12 09:16:13;;;;;;;3.97;2.73;;;15.80;47.50;;;;;;4917245;29;20176;-2
2024/01/12 09:18:42;;;;;;;4.37;3.03;;;15.80;47.70;;;;;;4910346;29;20209;-3
2024/01/12 09:21:07;;;;;;;3.70;2.90;;;15.70;47.70;;;;;;4907840;29;20464;-2
2024/01/12 09:23:33;;;;;;;3.30;3.00;;;15.70;47.80;;;;;;4910525;29;20196;-2
2024/01/12 09:25:59;;;;;;;5.63;2.80;;;15.60;47.90;;;;;;4907766;29;20182;-2
2024/01/12 09:28:25;;;;;;;3.57;2.90;;;15.50;48.00;;;;;;4909900;29;20178;-2
2024/01/12 09:30:50;;;;;;;3.63;2.93;;;15.40;48.10;;;;;;4907511;29;20177;-2
2024/01/12 09:33:16;;;;;;;5.13;3.00;;;15.30;48.20;;;;;;4909017;29;20179;-2
2024/01/12 09:35:42;;;;;;;3.43;2.80;;;15.30;48.30;;;;;;4907950;29;20190;-2
2024/01/12 09:38:07;;;;;;;3.57;3.20;;;15.20;48.40;;;;;;4908206;29;20274;-2
2024/01/12 09:40:33;;;;;;;4.87;3.00;;;15.20;48.50;;;;;;4902526;29;20181;-2
2024/01/12 09:43:00;;;;;;;4.93;2.70;;;15.10;48.50;;;;;;4905134;29;20186;-2
2024/01/12 09:45:26;;;;;;;3.80;2.83;;;15.10;48.60;;;;;;4905051;29;20520;-2
2024/01/12 09:47:53;;;;;;;4.20;3.00;;;15.10;48.60;;;;;;4891932;29;20172;-2
2024/01/12 09:50:21;;;;;;;4.63;3.23;;;15.20;48.70;;;;;;4911624;29;20210;-2
2024/01/12 09:52:49;;;;;;;3.53;2.80;;;15.20;48.70;;;;;;4911179;29;20176;-2
2024/01/12 09:55:14;;;;;;;4.17;3.10;;;15.20;48.60;;;;;;4910210;29;20563;-2
2024/01/12 09:57:41;;;;;;;2.83;2.40;;;15.30;48.50;;;;;;4909542;29;20351;-2
2024/01/12 10:00:09;;;;;;;3.57;3.17;;;15.50;48.30;;;;;;4903279;29;20282;-2
2024/01/12 10:02:34;;;;;;;4.37;2.90;;;15.80;47.80;;;;;;4898497;29;20211;-2
2024/01/12 10:05:00;;;;;;;3.33;2.70;;;16.10;47.40;;;;;;4899495;29;20209;-2
2024/01/12 10:07:27;;;;;;;4.30;2.73;;;16.40;47.10;;;;;;4895067;29;20181;-2
2024/01/12 10:09:53;;;;;;;3.60;3.03;;;16.60;46.70;;;;;;4909097;29;20190;-2
2024/01/12 10:12:19;;;;;;;3.67;2.90;;;16.80;46.40;;;;;;4915137;29;20227;-2
2024/01/12 10:14:44;;;;;;;3.47;2.87;;;16.90;46.30;;;;;;4917709;29;20561;-2
2024/01/12 10:17:17;;;;;;;3.43;2.90;;;16.90;46.20;;;;;;4917586;29;20215;-2
2024/01/12 10:19:42;;;;;;;3.83;2.90;;;16.80;46.20;;;;;;4917389;29;20163;-2
2024/01/12 10:22:14;;;;;;;3.43;2.90;;;16.70;46.30;;;;;;4907221;29;20185;-2
2024/01/12 10:24:40;;;;;;;3.20;2.73;;;16.60;46.50;;;;;;4908676;29;20561;-2
2024/01/12 10:27:06;;;;;;;3.93;3.03;;;16.50;46.60;;;;;;4905376;29;20251;-3
2024/01/12 10:29:38;;;;;;;3.80;3.00;;;16.40;46.70;;;;;;4908568;29;20190;-2
2024/01/12 10:32:04;;;;;;;3.43;3.07;;;16.30;46.90;;;;;;4909800;29;20558;-2
2024/01/12 10:34:33;;;;;;;4.83;3.20;;;16.10;47.10;;;;;;4910751;29;20246;-2
2024/01/12 10:37:02;;;;;;;3.37;3.00;;;15.90;47.20;;;;;;4911537;29;20514;-2
2024/01/12 10:39:33;;;;;;;3.27;2.57;;;15.80;47.50;;;;;;4916322;29;20304;-3
2024/01/12 10:42:05;;;;;;;3.43;2.83;;;15.80;47.70;;;;;;4919078;29;20188;-2
2024/01/12 10:44:35;;;;;;;3.23;2.93;;;15.70;47.80;;;;;;4914570;29;20495;-2
2024/01/12 10:47:05;;;;;;;3.70;3.07;;;15.60;47.90;;;;;;4912533;29;20178;-3
2024/01/12 10:49:43;;;;;;;3.50;3.07;;;15.60;48.00;;;;;;4910685;29;20189;-2
2024/01/12 10:52:27;;;;;;;3.73;3.00;;;15.60;48.00;;;;;;4909071;29;20381;-2
2024/01/12 10:55:04;;;;;;;3.70;2.87;;;15.60;48.00;;;;;;4909863;29;20228;-2
2024/01/12 10:57:32;;;;;;;2.80;2.50;;;15.60;47.90;;;;;;4910044;29;20447;-2
2024/01/12 10:59:58;;;;;;;3.30;2.80;;;15.60;48.00;;;;;;4910021;29;20531;-2
2024/01/12 11:02:25;;;;;;;3.10;2.80;;;15.70;47.90;;;;;;4910558;29;20660;-3
2024/01/12 11:04:50;;;;;;;3.83;2.80;;;15.70;47.80;;;;;;4908662;29;20213;-2
2024/01/12 11:07:17;;;;;;;3.27;2.67;;;15.80;47.90;;;;;;4908557;29;20613;-2
2024/01/12 11:09:43;;;;;;;4.63;2.90;;;15.90;48.00;;;;;;4908364;29;20183;-2
2024/01/12 11:12:17;;;;;;;3.40;3.00;;;16.00;47.70;;;;;;4909715;29;20699;-2
2024/01/12 11:14:43;;;;;;;3.97;3.13;;;16.20;47.50;;;;;;4910689;29;20182;-2
2024/01/12 11:17:11;;;;;;;2.90;2.60;;;16.40;47.10;;;;;;4911416;29;20238;-2
2024/01/12 11:19:37;;;;;;;3.20;2.90;;;16.50;47.00;;;;;;4912325;29;20180;-2
2024/01/12 11:22:06;;;;;;;4.13;2.73;;;16.60;46.90;;;;;;4912309;29;20459;-2
2024/01/12 11:24:32;;;;;;;3.53;2.70;;;16.60;46.90;;;;;;4913810;29;20181;-2
2024/01/12 11:26:59;;;;;;;3.20;2.90;;;16.60;47.00;;;;;;4914687;29;20179;-2
2024/01/12 11:29:29;;;;;;;3.50;3.00;;;16.50;47.00;;;;;;4913956;29;20417;-2
2024/01/12 11:31:55;;;;;;;3.00;2.60;;;16.40;47.10;;;;;;4913037;29;20637;-2
2024/01/12 11:34:21;;;;;;;4.33;3.33;;;16.40;47.20;;;;;;4912866;29;20202;-2
2024/01/12 11:36:58;;;;;;;5.67;3.27;;;16.20;47.30;;;;;;4910558;29;20211;-2
2024/01/12 11:39:24;;;;;;;4.93;3.13;;;16.10;47.50;;;;;;4908070;29;20314;-2
2024/01/12 11:41:54;;;;;;;4.20;3.00;;;16.00;47.70;;;;;;4915114;29;20534;-2
2024/01/12 11:44:19;;;;;;;3.17;2.83;;;15.90;47.80;;;;;;4907903;29;20180;-2
2024/01/12 11:46:47;;;;;;;4.27;3.10;;;15.80;48.00;;;;;;4910697;29;20256;-2
2024/01/12 11:49:15;;;;;;;3.90;2.97;;;15.70;48.10;;;;;;4910349;29;20174;-3
2024/01/12 11:51:41;;;;;;;3.77;3.07;;;15.60;48.20;;;;;;4911104;29;20188;-2
2024/01/12 11:54:06;;;;;;;3.53;3.10;;;15.60;48.40;;;;;;4911968;29;20291;-2
2024/01/12 11:56:33;;;;;;;3.50;3.00;;;15.50;48.40;;;;;;4908144;29;20189;-3
2024/01/12 11:58:59;;;;;;;4.57;3.30;;;15.50;48.50;;;;;;4908461;29;20195;-2
2024/01/12 12:01:25;;;;;;;3.43;2.70;;;15.50;48.50;;;;;;4906683;29;20478;-2
2024/01/12 12:03:51;;;;;;;3.00;2.70;;;15.50;48.50;;;;;;4907838;29;20589;-2
2024/01/12 12:06:17;;;;;;;5.60;3.10;;;15.60;48.50;;;;;;4907126;29;20231;-2
2024/01/12 12:08:43;;;;;;;5.10;3.27;;;15.50;48.50;;;;;;4909124;29;20723;-2
2024/01/12 12:11:09;;;;;;;4.47;3.20;;;15.50;48.60;;;;;;4907613;29;20595;-2
2024/01/12 12:13:36;;;;;;;6.40;3.33;;;15.40;48.70;;;;;;4906377;29;20376;-3
2024/01/12 12:16:03;;;;;;;4.30;3.00;;;15.30;48.70;;;;;;4907287;29;20184;-2
2024/01/12 12:18:32;;;;;;;4.83;3.40;;;15.30;48.80;;;;;;4909620;29;20253;-2
2024/01/12 12:20:59;;;;;;;4.20;3.40;;;15.30;48.90;;;;;;4909034;29;20177;-2
2024/01/12 12:23:25;;;;;;;4.07;3.33;;;15.30;48.90;;;;;;4909427;29;20195;-2
2024/01/12 12:25:53;;;;;;;4.83;3.50;;;15.30;49.00;;;;;;4909113;29;20179;-2
2024/01/12 12:28:19;;;;;;;4.03;3.10;;;15.30;49.00;;;;;;4910075;29;20178;-2
2024/01/12 12:30:45;;;;;;;4.33;3.50;;;15.30;48.90;;;;;;4908981;29;20189;-2
2024/01/12 12:33:11;;;;;;;4.33;3.70;;;15.40;48.90;;;;;;4909784;29;20196;-2
2024/01/12 12:35:37;;;;;;;5.13;3.33;;;15.50;48.80;;;;;;4909189;29;20183;-2
2024/01/12 12:38:03;;;;;;;3.80;3.13;;;15.60;48.80;;;;;;4910705;29;20489;-2
2024/01/12 12:40:30;;;;;;;4.53;3.50;;;15.60;48.70;;;;;;4911220;29;20277;-2
2024/01/12 12:42:59;;;;;;;3.80;3.03;;;15.70;48.60;;;;;;4912123;29;20242;-2
2024/01/12 12:45:26;;;;;;;3.47;3.07;;;16.00;48.20;;;;;;4912756;29;20207;-2
2024/01/12 12:47:52;;;;;;;3.57;3.27;;;16.10;47.90;;;;;;4912344;29;20293;-3
2024/01/12 12:50:19;;;;;;;4.80;3.60;;;16.20;47.80;;;;;;4910227;29;20581;-2
2024/01/12 12:52:45;;;;;;;4.17;3.40;;;16.20;47.70;;;;;;4910762;29;20198;-2
2024/01/12 12:55:12;;;;;;;3.90;3.33;;;16.20;47.70;;;;;;4909978;29;20254;-2
2024/01/12 12:57:39;;;;;;;3.30;3.00;;;16.20;47.80;;;;;;4909103;29;20318;-2
2024/01/12 13:00:09;;;;;;;4.10;3.30;;;16.10;47.80;;;;;;4911894;29;20546;-2
2024/01/12 13:02:38;;;;;;;4.00;3.23;;;16.10;47.90;;;;;;4910081;29;20652;-2
2024/01/12 13:05:04;;;;;;;3.23;2.93;;;16.00;48.00;;;;;;4911007;29;20171;-2
2024/01/12 13:07:30;;;;;;;3.50;3.20;;;15.90;48.10;;;;;;4910435;29;20336;-2
2024/01/12 13:09:55;;;;;;;3.80;3.40;;;15.80;48.50;;;;;;4909412;29;20191;-2
2024/01/12 13:12:21;;;;;;;5.00;3.90;;;15.70;48.70;;;;;;4910831;29;20201;-2
2024/01/12 13:14:47;;;;;;;6.23;3.73;;;15.70;49.10;;;;;;4909500;29;20605;-4
2024/01/12 13:17:14;;;;;;;5.93;4.07;;;15.60;49.30;;;;;;4908095;29;20271;-2
2024/01/12 13:19:40;;;;;;;6.17;4.63;;;15.60;49.60;;;;;;4900758;29;20482;-2
2024/01/12 13:22:06;;;;;;;6.40;4.60;;;15.60;49.80;;;;;;4890370;29;20192;-3
2024/01/12 13:24:32;;;;;;;8.70;5.50;;;15.60;50.00;;;;;;4890758;29;20180;-2
2024/01/12 13:26:58;;;;;;;6.67;5.00;;;15.60;50.10;;;;;;4888802;29;20191;-2
2024/01/12 13:29:24;;;;;;;7.83;5.60;;;15.50;50.10;;;;;;4891615;29;20176;-2
2024/01/12 13:31:50;;;;;;;8.07;5.23;;;15.60;50.30;;;;;;4889586;29;20277;-2
2024/01/12 13:34:15;;;;;;;9.97;5.57;;;15.60;50.20;;;;;;4890736;29;20247;-2
2024/01/12 13:36:44;;;;;;;10.60;5.37;;;15.60;50.20;;;;;;4889815;29;20463;-2
2024/01/12 13:39:10;;;;;;;9.83;5.97;;;15.70;50.20;;;;;;4890852;29;20196;-2
2024/01/12 13:41:38;;;;;;;11.33;6.50;;;15.80;50.30;;;;;;4889933;29;20252;-2
2024/01/12 13:44:04;;;;;;;11.33;6.00;;;15.80;50.20;;;;;;4892170;29;20193;-2
2024/01/12 13:46:30;;;;;;;11.30;6.53;;;15.80;50.20;;;;;;4890718;29;20189;-2
2024/01/12 13:48:56;;;;;;;11.20;5.83;;;15.90;50.20;;;;;;4890495;29;20214;-2
2024/01/12 13:51:23;;;;;;;9.07;5.93;;;15.90;50.10;;;;;;4891882;29;20675;-2
2024/01/12 13:53:49;;;;;;;11.20;6.20;;;15.90;50.00;;;;;;4891639;29;20467;-2
2024/01/12 13:56:15;;;;;;;9.53;5.73;;;15.90;50.10;;;;;;4891465;29;20405;-2
2024/01/12 13:58:41;;;;;;;11.70;6.60;;;15.90;50.10;;;;;;4892321;29;20545;-2
2024/01/12 14:01:09;;;;;;;9.37;5.90;;;15.90;50.20;;;;;;4890825;29;20378;-2
2024/01/12 14:03:35;;;;;;;11.63;5.87;;;15.80;50.20;;;;;;4891371;29;20505;-2
2024/01/12 14:06:01;;;;;;;11.40;6.30;;;15.80;50.30;;;;;;4890805;29;20192;-2
2024/01/12 14:08:28;;;;;;;12.90;6.63;;;15.80;50.40;;;;;;4887958;29;20212;-2
2024/01/12 14:10:55;;;;;;;9.60;6.40;;;15.70;50.60;;;;;;4888447;29;20189;-2
2024/01/12 14:13:24;;;;;;;9.37;5.70;;;15.60;50.60;;;;;;4888105;29;20447;-2
2024/01/12 14:15:50;;;;;;;9.90;6.30;;;15.60;50.80;;;;;;4889550;29;20188;-2
2024/01/12 14:18:16;;;;;;;6.90;5.57;;;15.50;50.80;;;;;;4888318;29;20218;-2
2024/01/12 14:20:42;;;;;;;10.13;6.13;;;15.50;51.00;;;;;;4896864;29;20236;-2
2024/01/12 14:23:07;;;;;;;8.27;6.13;;;15.50;51.50;;;;;;4913681;29;20333;-2
2024/01/12 14:25:33;;;;;;;10.07;5.53;;;15.40;51.20;;;;;;4914517;29;20402;-2
2024/01/12 14:28:02;;;;;;;8.90;5.70;;;15.40;51.30;;;;;;4914338;29;20583;-2
2024/01/12 14:30:29;;;;;;;8.57;5.90;;;15.30;51.40;;;;;;4914011;29;20171;-2
2024/01/12 14:32:55;;;;;;;9.07;5.43;;;15.40;51.50;;;;;;4914007;29;20176;-3
2024/01/12 14:35:21;;;;;;;9.23;5.97;;;15.40;51.40;;;;;;4914547;29;20176;-2
2024/01/12 14:37:47;;;;;;;7.20;5.73;;;15.50;51.40;;;;;;4914044;29;20208;-2
2024/01/12 14:40:13;;;;;;;10.23;6.93;;;15.50;51.30;;;;;;4913671;29;20450;-2
2024/01/12 14:42:39;;;;;;;7.70;6.07;;;15.70;51.30;;;;;;4914827;29;20395;-3
2024/01/12 14:45:07;;;;;;;9.33;6.33;;;15.90;51.00;;;;;;4915379;29;20167;-2
2024/01/12 14:47:33;;;;;;;7.97;6.00;;;15.90;50.90;;;;;;4914009;29;20530;-2
2024/01/12 14:49:59;;;;;;;8.03;5.87;;;16.10;50.70;;;;;;4910193;29;20185;-2
2024/01/12 14:52:27;;;;;;;9.73;6.13;;;16.20;50.50;;;;;;4912169;29;20488;-2
2024/01/12 14:54:54;;;;;;;8.20;6.20;;;16.30;50.30;;;;;;4913504;29;20212;-2
2024/01/12 14:57:20;;;;;;;7.37;6.00;;;16.40;50.20;;;;;;4913271;29;20223;-2
2024/01/12 14:59:47;;;;;;;8.20;6.27;;;16.40;50.10;;;;;;4917856;29;20168;-2
2024/01/12 15:02:13;;;;;;;8.60;6.40;;;16.30;50.10;;;;;;4919184;29;20574;-2
2024/01/12 15:04:39;;;;;;;11.10;6.63;;;16.30;50.10;;;;;;4919712;29;20184;-2
2024/01/12 15:07:07;;;;;;;8.33;6.33;;;16.30;50.20;;;;;;4919999;29;20751;-3
2024/01/12 15:09:34;;;;;;;7.97;6.27;;;16.20;50.30;;;;;;4919798;29;20184;-2
2024/01/12 15:12:03;;;;;;;8.90;6.30;;;16.10;50.40;;;;;;4920809;29;20188;-2
2024/01/12 15:14:29;;;;;;;8.73;6.20;;;16.10;50.50;;;;;;4921117;29;20188;-2
2024/01/12 15:16:56;;;;;;;8.63;6.60;;;15.90;50.50;;;;;;4921102;29;20215;-2
2024/01/12 15:19:23;;;;;;;8.37;6.10;;;15.90;50.70;;;;;;4921627;29;20172;-2
2024/01/12 15:21:49;;;;;;;7.97;6.90;;;15.80;50.80;;;;;;4921242;29;20153;-2
2024/01/12 15:24:15;;;;;;;9.70;6.73;;;15.80;51.00;;;;;;4921698;29;20608;-2
2024/01/12 15:26:43;;;;;;;9.27;6.77;;;15.70;51.10;;;;;;4920667;29;20176;-2
2024/01/12 15:29:09;;;;;;;9.97;7.17;;;15.60;51.20;;;;;;4920553;29;20180;-2
2024/01/12 15:31:35;;;;;;;8.77;6.77;;;15.60;51.30;;;;;;4920473;29;20180;-2
2024/01/12 15:34:01;;;;;;;8.87;6.60;;;15.50;51.40;;;;;;4921213;29;20188;-2
2024/01/12 15:36:27;;;;;;;9.03;6.83;;;15.50;51.50;;;;;;4921492;29;20183;-2
2024/01/12 15:38:53;;;;;;;9.63;6.77;;;15.50;51.60;;;;;;4916845;29;20303;-2
2024/01/12 15:41:19;;;;;;;9.87;7.37;;;15.50;51.70;;;;;;4912374;29;20263;-2
2024/01/12 15:43:44;;;;;;;8.93;6.97;;;15.50;51.70;;;;;;4912949;29;20211;-2
2024/01/12 15:46:10;;;;;;;8.50;6.80;;;15.50;51.80;;;;;;4911684;29;20436;-2
2024/01/12 15:48:36;;;;;;;11.10;7.70;;;15.60;51.80;;;;;;4912543;29;20201;-2
2024/01/12 15:51:02;;;;;;;8.47;6.73;;;15.60;51.60;;;;;;4910874;29;20250;-2
2024/01/12 15:53:28;;;;;;;8.80;7.27;;;15.70;51.50;;;;;;4911682;29;20180;-3
2024/01/12 15:55:54;;;;;;;9.13;7.57;;;15.80;51.40;;;;;;4910967;29;20192;-2
2024/01/12 15:58:20;;;;;;;10.40;7.20;;;15.90;51.30;;;;;;4911678;29;20231;-2
2024/01/12 16:00:45;;;;;;;9.27;6.90;;;16.00;51.10;;;;;;4897787;29;20176;-2
2024/01/12 16:03:11;;;;;;;8.27;7.03;;;16.10;51.00;;;;;;4915845;29;20247;-2
2024/01/12 16:05:37;;;;;;;8.07;7.13;;;16.20;50.80;;;;;;4911874;29;20284;-2
2024/01/12 16:08:04;;;;;;;8.53;7.13;;;16.30;50.70;;;;;;4912411;29;20463;-2
2024/01/12 16:10:33;;;;;;;8.50;6.83;;;16.30;50.60;;;;;;4910368;29;20187;-2
2024/01/12 16:12:59;;;;;;;8.57;7.17;;;16.30;50.50;;;;;;4911783;29;20184;-2
2024/01/12 16:15:25;;;;;;;9.20;7.33;;;16.20;50.50;;;;;;4910696;29;20602;-4
2024/01/12 16:17:51;;;;;;;9.00;7.13;;;16.20;50.70;;;;;;4913481;29;20207;-2
2024/01/12 16:20:17;;;;;;;10.00;7.47;;;16.20;50.70;;;;;;4912274;29;20507;-2
2024/01/12 16:22:43;;;;;;;8.87;7.00;;;16.10;50.80;;;;;;4910075;29;20597;-2
2024/01/12 16:25:09;;;;;;;8.20;7.20;;;16.00;50.90;;;;;;4909104;29;20172;-2
2024/01/12 16:27:34;;;;;;;9.50;7.47;;;15.90;51.00;;;;;;4908650;29;20411;-2
2024/01/12 16:30:00;;;;;;;9.17;7.43;;;15.90;51.10;;;;;;4909207;29;20553;-2
2024/01/12 16:32:26;;;;;;;8.80;7.27;;;15.80;51.20;;;;;;4908883;29;20189;-2
2024/01/12 16:34:52;;;;;;;9.70;7.67;;;15.70;51.30;;;;;;4909982;29;20186;-3
2024/01/12 16:37:17;;;;;;;8.67;7.50;;;15.70;51.50;;;;;;4911421;29;20203;-2
2024/01/12 16:39:44;;;;;;;9.97;7.60;;;15.70;51.60;;;;;;4908587;29;20277;-3
2024/01/12 16:42:10;;;;;;;10.97;7.03;;;15.60;51.80;;;;;;4908879;29;20268;-2
2024/01/12 16:44:38;;;;;;;8.70;6.77;;;15.60;52.30;;;;;;4907062;29;20192;-2
2024/01/12 16:47:04;;;;;;;8.33;6.93;;;15.50;52.40;;;;;;4909735;29;20188;-2
2024/01/12 16:49:35;;;;;;;7.20;6.17;;;15.50;52.40;;;;;;4906500;29;20206;-2
2024/01/12 16:52:02;;;;;;;10.27;7.47;;;15.50;52.80;;;;;;4906222;29;20189;-2
2024/01/12 16:54:27;;;;;;;10.27;6.60;;;15.50;53.00;;;;;;4907510;29;20406;-2
2024/01/12 16:56:54;;;;;;;9.30;6.60;;;15.50;53.10;;;;;;4910937;29;20603;-2
2024/01/12 16:59:19;;;;;;;9.13;6.40;;;15.50;53.00;;;;;;4909963;29;20178;-2
2024/01/12 17:01:45;;;;;;;8.07;6.60;;;15.70;53.10;;;;;;4911068;29;20192;-2
2024/01/12 17:04:11;;;;;;;8.63;6.93;;;15.70;52.90;;;;;;4914306;29;20196;-2
2024/01/12 17:06:41;;;;;;;10.23;7.30;;;15.80;52.70;;;;;;4912795;29;20473;-2
2024/01/12 17:09:10;;;;;;;8.80;6.87;;;16.00;52.40;;;;;;4907268;29;20239;-2
2024/01/12 17:11:43;;;;;;;7.77;6.40;;;16.10;52.10;;;;;;4905891;29;20209;-2
2024/01/12 17:14:09;;;;;;;10.60;7.10;;;16.20;51.90;;;;;;4895589;29;20182;-2
2024/01/12 17:16:37;;;;;;;9.23;6.97;;;16.20;51.70;;;;;;4901926;29;20432;-2
2024/01/12 17:19:03;;;;;;;7.63;6.30;;;16.30;51.70;;;;;;4885291;29;20224;-2
2024/01/12 17:21:29;;;;;;;8.03;6.30;;;16.30;51.50;;;;;;4899723;29;20423;-3
2024/01/12 17:23:56;;;;;;;8.40;6.77;;;16.30;51.50;;;;;;4912248;29;20276;-2
2024/01/12 17:26:22;;;;;;;7.87;6.63;;;16.30;51.50;;;;;;4911476;29;20279;-2
2024/01/12 17:28:48;;;;;;;7.93;6.63;;;16.20;51.50;;;;;;4912583;29;20187;-2
2024/01/12 17:31:15;;;;;;;7.97;6.67;;;16.20;51.60;;;;;;4912316;29;20188;-2
2024/01/12 17:33:41;;;;;;;6.70;5.90;;;16.10;51.70;;;;;;4911922;29;20587;-2
2024/01/12 17:36:07;;;;;;;8.07;6.27;;;16.00;51.80;;;;;;4912331;29;20207;-3
2024/01/12 17:38:33;;;;;;;9.00;6.60;;;16.00;51.90;;;;;;4910341;29;20215;-2
2024/01/12 17:40:59;;;;;;;7.70;6.47;;;15.90;52.00;;;;;;4912010;29;20176;-3
2024/01/12 17:43:25;;;;;;;8.80;6.50;;;15.90;52.10;;;;;;4910808;29;20193;-3
2024/01/12 17:45:52;;;;;;;7.70;6.30;;;15.80;52.60;;;;;;4910361;29;20551;-2
2024/01/12 17:48:18;;;;;;;7.20;6.07;;;15.70;52.30;;;;;;4911517;29;20184;-2
2024/01/12 17:50:44;;;;;;;7.90;6.27;;;15.70;52.50;;;;;;4911056;29;20577;-2
2024/01/12 17:53:09;;;;;;;7.13;5.87;;;15.60;52.50;;;;;;4911647;29;20302;-2
2024/01/12 17:55:35;;;;;;;7.93;6.27;;;15.60;52.60;;;;;;4910726;29;20306;-2
2024/01/12 17:58:01;;;;;;;7.57;6.20;;;15.60;52.80;;;;;;4911283;29;20247;-2
2024/01/12 18:00:27;;;;;;;7.43;6.17;;;15.50;53.00;;;;;;4911134;29;20440;-2
2024/01/12 18:02:53;;;;;;;6.93;6.07;;;15.50;53.20;;;;;;4912844;29;20211;-2
2024/01/12 18:05:19;;;;;;;6.50;5.80;;;15.50;53.30;;;;;;4911456;29;20452;-2
2024/01/12 18:07:45;;;;;;;6.43;5.67;;;15.50;53.40;;;;;;4912506;29;20263;-3
2024/01/12 18:10:11;;;;;;;7.83;6.03;;;15.60;53.40;;;;;;4914041;29;20181;-2
2024/01/12 18:12:37;;;;;;;7.43;5.67;;;15.60;53.30;;;;;;4913403;29;20433;-2
2024/01/12 18:15:03;;;;;;;7.27;5.50;;;15.70;53.20;;;;;;4913212;29;20439;-2
2024/01/12 18:17:29;;;;;;;6.73;5.73;;;15.80;53.10;;;;;;4910944;29;20319;-2
2024/01/12 18:19:54;;;;;;;6.67;5.30;;;16.00;53.10;;;;;;4911394;29;20279;-2
2024/01/12 18:22:20;;;;;;;7.30;5.83;;;16.10;52.90;;;;;;4912999;29;20267;-2
2024/01/12 18:24:48;;;;;;;7.23;6.10;;;16.20;52.70;;;;;;4911833;29;20243;-2
2024/01/12 18:27:15;;;;;;;7.17;6.00;;;16.30;52.50;;;;;;4913208;29;20203;-2
2024/01/12 18:29:41;;;;;;;6.33;5.53;;;16.40;52.40;;;;;;4911267;29;20196;-2
2024/01/12 18:32:07;;;;;;;7.07;5.80;;;16.40;52.20;;;;;;4912414;29;20727;-2
2024/01/12 18:34:32;;;;;;;7.87;6.13;;;16.40;52.10;;;;;;4912507;29;20188;-2
2024/01/12 18:36:59;;;;;;;7.30;5.60;;;16.40;52.10;;;;;;4908823;29;20216;-2
2024/01/12 18:39:24;;;;;;;6.67;5.70;;;16.40;52.20;;;;;;4912221;29;20562;-2
2024/01/12 18:41:50;;;;;;;7.27;5.77;;;16.40;52.20;;;;;;4912408;29;20360;-3
2024/01/12 18:44:16;;;;;;;7.60;5.67;;;16.30;52.30;;;;;;4911480;29;20196;-3
2024/01/12 18:46:42;;;;;;;7.47;6.00;;;16.20;52.40;;;;;;4911520;29;20346;-2
2024/01/12 18:49:08;;;;;;;7.03;5.70;;;16.20;52.60;;;;;;4911966;29;20210;-2
2024/01/12 18:51:35;;;;;;;7.40;5.73;;;16.10;52.60;;;;;;4909775;29;20460;-3
2024/01/12 18:54:00;;;;;;;8.23;5.80;;;16.00;52.70;;;;;;4910695;29;20200;-2
2024/01/12 18:56:26;;;;;;;7.13;6.10;;;15.90;52.80;;;;;;4910702;29;20177;-2